createdAt,value
2019-04-13T00:00:03.866Z,1.88
2019-04-13T00:02:43.883Z,1.79
2019-04-13T00:05:37.887Z,1.75
2019-04-13T00:08:08.570Z,1.77
2019-04-13T00:10:46.958Z,1.81
2019-04-13T00:13:15.904Z,1.80
2019-04-13T00:15:44.793Z,1.74
2019-04-13T00:18:13.693Z,1.66
2019-04-13T00:20:42.312Z,1.64
2019-04-13T00:23:11.337Z,1.67
2019-04-13T00:25:40.241Z,1.67
2019-04-13T00:28:09.151Z,1.63
2019-04-13T00:30:38.598Z,1.63
2019-04-13T00:33:07.548Z,1.58
2019-04-13T00:35:36.203Z,1.57
2019-04-13T00:38:04.907Z,1.70
2019-04-13T00:40:33.916Z,1.67
2019-04-13T00:43:02.804Z,1.63
2019-04-13T00:45:31.391Z,1.61
2019-04-13T00:48:00.282Z,1.64
2019-04-13T00:50:29.577Z,1.68
2019-04-13T00:52:58.802Z,1.62
2019-04-13T00:55:27.654Z,1.66
2019-04-13T00:57:56.563Z,1.72
2019-04-13T01:00:25.553Z,1.72
2019-04-13T01:02:54.443Z,1.75
2019-04-13T01:05:23.435Z,1.68
2019-04-13T01:07:52.050Z,1.72
2019-04-13T01:10:21.017Z,1.76
2019-04-13T01:12:50.318Z,1.68
2019-04-13T01:15:19.325Z,1.69
2019-04-13T01:17:48.615Z,1.68
2019-04-13T01:20:17.608Z,1.67
2019-04-13T01:22:46.804Z,1.61
2019-04-13T01:25:15.696Z,1.57
2019-04-13T01:27:44.997Z,1.51
2019-04-13T01:30:14.206Z,1.46
2019-04-13T01:32:43.748Z,1.44
2019-04-13T01:35:12.452Z,1.47
2019-04-13T01:37:41.079Z,1.40
2019-04-13T01:40:09.831Z,1.44
2019-04-13T01:42:38.734Z,1.46
2019-04-13T01:45:07.751Z,1.40
2019-04-13T01:47:36.373Z,1.42
2019-04-13T01:50:05.260Z,1.40
2019-04-13T01:52:33.881Z,1.32
2019-04-13T01:55:03.110Z,1.44
2019-04-13T01:57:32.413Z,1.45
2019-04-13T02:00:01.101Z,1.41
2019-04-13T02:02:52.041Z,1.38
2019-04-13T02:05:46.293Z,1.38
2019-04-13T02:08:37.122Z,1.30
2019-04-13T02:11:11.733Z,1.27
2019-04-13T02:13:41.029Z,1.27
2019-04-13T02:16:09.994Z,1.36
2019-04-13T02:18:38.619Z,1.28
2019-04-13T02:21:07.285Z,1.37
2019-04-13T02:23:36.179Z,1.33
2019-04-13T02:26:05.176Z,1.36
2019-04-13T02:28:34.064Z,1.38
2019-04-13T02:31:02.968Z,1.35
2019-04-13T02:33:32.257Z,1.28
2019-04-13T02:36:00.878Z,1.32
2019-04-13T02:38:29.828Z,1.40
2019-04-13T02:40:58.471Z,1.35
2019-04-13T02:43:27.420Z,1.30
2019-04-13T02:45:56.306Z,1.31
2019-04-13T02:48:25.305Z,1.33
2019-04-13T02:50:54.907Z,1.32
2019-04-13T02:53:23.553Z,1.43
2019-04-13T02:55:52.488Z,1.45
2019-04-13T02:58:21.480Z,1.33
2019-04-13T03:00:50.108Z,1.36
2019-04-13T03:03:19.361Z,1.32
2019-04-13T03:05:48.355Z,1.40
2019-04-13T03:08:17.347Z,1.47
2019-04-13T03:10:46.063Z,1.50
2019-04-13T03:13:16.972Z,1.43
2019-04-13T03:16:04.402Z,1.46
2019-04-13T03:18:39.336Z,1.49
2019-04-13T03:21:07.952Z,1.44
2019-04-13T03:23:36.567Z,1.48
2019-04-13T03:26:05.605Z,1.48
2019-04-13T03:28:34.988Z,1.62
2019-04-13T03:31:03.912Z,1.56
2019-04-13T03:33:32.895Z,1.49
2019-04-13T03:36:01.531Z,1.54
2019-04-13T03:38:30.769Z,1.54
2019-04-13T03:41:00.079Z,1.63
2019-04-13T03:43:28.961Z,1.60
2019-04-13T03:45:57.592Z,1.46
2019-04-13T03:48:26.236Z,1.47
2019-04-13T03:50:55.125Z,1.51
2019-04-13T03:53:24.323Z,1.56
2019-04-13T03:55:52.960Z,1.57
2019-04-13T03:58:22.210Z,1.57
2019-04-13T04:00:51.041Z,1.59
2019-04-13T04:03:20.172Z,1.55
2019-04-13T04:05:49.085Z,1.54
2019-04-13T04:08:18.284Z,1.63
2019-04-13T04:10:47.179Z,1.61
2019-04-13T04:13:16.477Z,1.61
2019-04-13T04:15:45.675Z,1.60
2019-04-13T04:18:14.569Z,1.58
2019-04-13T04:20:43.772Z,1.63
2019-04-13T04:23:12.764Z,1.63
2019-04-13T04:25:41.650Z,1.61
2019-04-13T04:28:10.644Z,1.65
2019-04-13T04:30:39.947Z,1.65
2019-04-13T04:33:08.559Z,1.88
2019-04-13T04:35:37.217Z,1.91
2019-04-13T04:38:06.210Z,1.93
2019-04-13T04:40:35.423Z,1.76
2019-04-13T04:43:04.814Z,1.75
2019-04-13T04:45:33.694Z,1.74
2019-04-13T04:48:02.907Z,1.81
2019-04-13T04:50:32.108Z,1.75
2019-04-13T04:53:01.097Z,1.74
2019-04-13T04:55:29.728Z,1.71
2019-04-13T04:57:58.671Z,1.76
2019-04-13T05:00:27.574Z,1.86
2019-04-13T05:02:56.732Z,1.91
2019-04-13T05:05:26.282Z,1.89
2019-04-13T05:07:54.886Z,1.90
2019-04-13T05:10:23.767Z,1.90
2019-04-13T05:12:52.953Z,1.93
2019-04-13T05:15:22.400Z,1.94
2019-04-13T05:17:51.355Z,1.95
2019-04-13T05:20:19.950Z,2.00
2019-04-13T05:22:48.543Z,2.02
2019-04-13T05:25:17.555Z,2.03
2019-04-13T05:27:46.818Z,2.06
2019-04-13T05:30:15.807Z,2.00
2019-04-13T05:32:44.458Z,2.06
2019-04-13T05:35:13.374Z,2.10
2019-04-13T05:37:42.275Z,2.14
2019-04-13T05:40:11.477Z,2.09
2019-04-13T05:42:40.673Z,2.02
2019-04-13T05:45:09.498Z,2.18
2019-04-13T05:47:38.769Z,2.18
2019-04-13T05:50:08.168Z,2.14
2019-04-13T05:52:37.180Z,2.14
2019-04-13T05:55:06.732Z,2.25
2019-04-13T05:57:35.700Z,2.30
2019-04-13T06:00:05.134Z,2.25
2019-04-13T06:02:35.700Z,2.27
2019-04-13T06:05:07.573Z,2.26
2019-04-13T06:07:37.170Z,2.32
2019-04-13T06:10:07.460Z,2.41
2019-04-13T06:12:36.797Z,2.46
2019-04-13T06:15:07.693Z,2.45
2019-04-13T06:17:37.135Z,2.41
2019-04-13T06:20:07.578Z,2.50
2019-04-13T06:22:36.622Z,2.62
2019-04-13T06:25:09.440Z,2.59
2019-04-13T06:27:36.492Z,2.66
2019-04-13T06:30:24.859Z,2.71
2019-04-13T06:32:58.333Z,2.73
2019-04-13T06:35:30.440Z,2.85
2019-04-13T06:37:59.360Z,2.96
2019-04-13T06:40:27.995Z,3.12
2019-04-13T06:42:56.984Z,3.25
2019-04-13T06:45:25.969Z,3.56
2019-04-13T06:47:54.947Z,3.59
2019-04-13T06:50:23.951Z,3.65
2019-04-13T06:52:52.845Z,3.75
2019-04-13T06:55:22.041Z,3.60
2019-04-13T06:57:51.047Z,3.53
2019-04-13T07:00:19.807Z,3.62
2019-04-13T07:02:48.807Z,3.72
2019-04-13T07:05:17.441Z,3.86
2019-04-13T07:08:00.966Z,4.00
2019-04-13T07:10:58.096Z,3.88
2019-04-13T07:13:33.348Z,3.76
2019-04-13T07:16:14.002Z,3.78
2019-04-13T07:18:43.708Z,3.78
2019-04-13T07:21:13.319Z,3.85
2019-04-13T07:23:42.658Z,3.92
2019-04-13T07:26:11.527Z,4.03
2019-04-13T07:28:40.402Z,4.18
2019-04-13T07:31:09.397Z,4.15
2019-04-13T07:33:38.388Z,4.22
2019-04-13T07:36:10.627Z,4.24
2019-04-13T07:38:38.237Z,4.29
2019-04-13T07:41:07.213Z,4.36
2019-04-13T07:43:35.839Z,4.30
2019-04-13T07:46:29.517Z,4.26
2019-04-13T07:49:13.998Z,4.21
2019-04-13T07:52:06.992Z,4.25
2019-04-13T07:54:34.935Z,4.32
2019-04-13T07:57:05.406Z,4.25
2019-04-13T07:59:33.943Z,4.31
2019-04-13T08:02:02.845Z,4.31
2019-04-13T08:04:31.712Z,4.28
2019-04-13T08:07:00.887Z,4.33
2019-04-13T08:09:29.779Z,4.44
2019-04-13T08:11:58.631Z,4.57
2019-04-13T08:14:29.912Z,4.90
2019-04-13T08:17:00.109Z,4.89
2019-04-13T08:19:32.575Z,4.95
2019-04-13T08:22:01.957Z,5.02
2019-04-13T08:24:31.869Z,5.09
2019-04-13T08:27:00.508Z,5.07
2019-04-13T08:29:29.144Z,5.08
2019-04-13T08:32:01.722Z,5.01
2019-04-13T08:34:28.527Z,5.28
2019-04-13T08:36:58.091Z,5.46
2019-04-13T08:39:27.104Z,5.46
2019-04-13T08:41:55.892Z,5.11
2019-04-13T08:44:24.763Z,5.06
2019-04-13T08:46:54.166Z,5.06
2019-04-13T08:49:22.771Z,5.02
2019-04-13T08:51:51.658Z,4.73
2019-04-13T08:54:20.284Z,4.78
2019-04-13T08:56:49.158Z,4.82
2019-04-13T08:59:18.374Z,4.82
2019-04-13T09:01:49.021Z,4.89
2019-04-13T09:04:18.375Z,5.14
2019-04-13T09:06:47.273Z,4.97
2019-04-13T09:09:16.282Z,4.97
2019-04-13T09:11:45.642Z,4.88
2019-04-13T09:14:15.566Z,4.82
2019-04-13T09:16:45.126Z,4.86
2019-04-13T09:19:29.444Z,4.86
2019-04-13T09:22:01.684Z,4.98
2019-04-13T09:24:30.317Z,5.19
2019-04-13T09:26:59.238Z,5.74
2019-04-13T09:29:28.074Z,6.02
2019-04-13T09:32:00.299Z,6.44
2019-04-13T09:34:31.621Z,6.38
2019-04-13T09:37:00.382Z,6.08
2019-04-13T09:39:29.667Z,6.38
2019-04-13T09:41:58.555Z,6.23
2019-04-13T09:44:31.149Z,6.13
2019-04-13T09:47:08.783Z,5.40
2019-04-13T09:49:37.680Z,5.40
2019-04-13T09:52:06.594Z,4.60
2019-04-13T09:54:35.662Z,4.60
2019-04-13T09:57:04.527Z,4.23
2019-04-13T09:59:33.426Z,4.20
2019-04-13T10:02:02.296Z,3.92
2019-04-13T10:04:31.162Z,3.92
2019-04-13T10:07:00.109Z,3.77
2019-04-13T10:09:29.875Z,3.66
2019-04-13T10:12:20.611Z,3.64
2019-04-13T10:15:20.685Z,3.54
2019-04-13T10:17:54.512Z,3.63
2019-04-13T10:20:24.000Z,3.54
2019-04-13T10:22:53.565Z,3.41
2019-04-13T10:25:23.943Z,3.47
2019-04-13T10:27:53.301Z,3.41
2019-04-13T10:30:22.220Z,3.38
2019-04-13T10:32:51.048Z,3.31
2019-04-13T10:35:19.692Z,3.34
2019-04-13T10:37:48.657Z,3.29
2019-04-13T10:40:17.279Z,3.22
2019-04-13T10:42:46.176Z,3.29
2019-04-13T10:45:33.148Z,3.29
2019-04-13T10:48:19.516Z,3.40
2019-04-13T10:50:55.282Z,3.48
2019-04-13T10:53:23.986Z,3.54
2019-04-13T10:55:52.633Z,3.60
2019-04-13T10:58:21.860Z,3.58
2019-04-13T11:00:50.731Z,3.57
2019-04-13T11:03:19.727Z,3.55
2019-04-13T11:05:48.605Z,3.68
2019-04-13T11:08:20.069Z,3.63
2019-04-13T11:10:48.055Z,3.63
2019-04-13T11:13:16.769Z,3.68
2019-04-13T11:15:45.660Z,3.74
2019-04-13T11:18:14.388Z,3.78
2019-04-13T11:20:45.294Z,4.04
2019-04-13T11:23:14.842Z,4.09
2019-04-13T11:25:43.824Z,4.24
2019-04-13T11:28:12.800Z,4.55
2019-04-13T11:30:41.661Z,4.55
2019-04-13T11:33:10.806Z,5.28
2019-04-13T11:35:39.650Z,5.48
2019-04-13T11:38:08.547Z,5.48
2019-04-13T11:40:37.315Z,5.72
2019-04-13T11:43:28.035Z,6.02
2019-04-13T11:46:14.427Z,6.28
2019-04-13T11:49:05.514Z,6.20
2019-04-13T11:51:34.792Z,6.44
2019-04-13T11:54:04.613Z,5.99
2019-04-13T11:56:36.643Z,5.71
2019-04-13T11:59:03.987Z,5.60
2019-04-13T12:01:49.728Z,5.60
2019-04-13T12:04:55.535Z,5.45
2019-04-13T12:07:40.475Z,5.45
2019-04-13T12:10:28.804Z,5.46
2019-04-13T12:13:35.156Z,5.46
2019-04-13T12:16:32.581Z,5.51
2019-04-13T12:19:06.744Z,5.40
2019-04-13T12:21:53.388Z,5.33
2019-04-13T12:24:25.289Z,5.17
2019-04-13T12:26:54.333Z,5.17
2019-04-13T12:29:22.959Z,5.13
2019-04-13T12:31:51.915Z,5.29
2019-04-13T12:34:23.640Z,5.48
2019-04-13T12:36:51.344Z,5.71
2019-04-13T12:39:20.536Z,5.89
2019-04-13T12:41:53.886Z,5.84
2019-04-13T12:44:36.299Z,6.03
2019-04-13T12:46:53.964Z,6.03
2019-04-13T12:49:23.157Z,6.46
2019-04-13T12:51:52.064Z,6.51
2019-04-13T12:54:20.943Z,6.60
2019-04-13T12:56:50.207Z,6.45
2019-04-13T12:59:19.166Z,6.34
2019-04-13T13:02:05.673Z,6.61
2019-04-13T13:04:40.767Z,6.55
2019-04-13T13:07:09.493Z,6.49
2019-04-13T13:09:40.149Z,6.42
2019-04-13T13:12:08.994Z,6.56
2019-04-13T13:14:37.828Z,6.35
2019-04-13T13:17:06.779Z,6.43
2019-04-13T13:19:36.071Z,6.38
2019-04-13T13:22:04.895Z,6.45
2019-04-13T13:24:33.757Z,6.54
2019-04-13T13:27:02.863Z,6.51
2019-04-13T13:29:31.532Z,6.42
2019-04-13T13:32:00.345Z,6.61
2019-04-13T13:34:29.383Z,6.47
2019-04-13T13:36:58.010Z,6.40
2019-04-13T13:39:27.269Z,6.22
2019-04-13T13:41:55.887Z,6.33
2019-04-13T13:44:24.986Z,6.29
2019-04-13T13:46:53.936Z,6.18
2019-04-13T13:49:22.559Z,6.46
2019-04-13T13:51:56.321Z,6.58
2019-04-13T13:54:22.767Z,6.54
2019-04-13T13:56:51.908Z,6.35
2019-04-13T13:59:20.775Z,6.43
2019-04-13T14:01:55.507Z,6.41
2019-04-13T14:04:24.667Z,6.05
2019-04-13T14:06:53.358Z,6.05
2019-04-13T14:09:22.002Z,5.93
2019-04-13T14:11:51.306Z,6.17
2019-04-13T14:14:20.638Z,6.45
2019-04-13T14:16:49.511Z,6.48
2019-04-13T14:19:18.804Z,6.59
2019-04-13T14:21:47.509Z,6.59
2019-04-13T14:24:17.460Z,6.62
2019-04-13T14:26:46.633Z,6.58
2019-04-13T14:29:15.523Z,6.62
2019-04-13T14:31:44.379Z,6.68
2019-04-13T14:34:12.984Z,6.64
2019-04-13T14:36:41.844Z,6.24
2019-04-13T14:39:10.732Z,6.33
2019-04-13T14:41:41.788Z,6.16
2019-04-13T14:44:10.256Z,6.13
2019-04-13T14:46:39.213Z,6.25
2019-04-13T14:49:07.916Z,6.25
2019-04-13T14:51:36.892Z,6.34
2019-04-13T14:54:05.534Z,6.23
2019-04-13T14:56:35.687Z,6.05
2019-04-13T14:59:04.974Z,6.10
2019-04-13T15:01:33.826Z,5.88
2019-04-13T15:04:02.726Z,5.89
2019-04-13T15:06:31.618Z,6.15
2019-04-13T15:09:00.721Z,5.71
2019-04-13T15:11:29.631Z,6.07
2019-04-13T15:13:59.991Z,6.29
2019-04-13T15:16:29.488Z,5.97
2019-04-13T15:19:25.081Z,6.32
2019-04-13T15:21:41.779Z,6.30
2019-04-13T15:24:14.373Z,5.94
2019-04-13T15:26:43.879Z,5.71
2019-04-13T15:29:16.371Z,5.67
2019-04-13T15:31:43.045Z,5.55
2019-04-13T15:34:12.004Z,5.35
2019-04-13T15:36:42.163Z,5.35
2019-04-13T15:39:18.754Z,5.51
2019-04-13T15:41:59.917Z,5.29
2019-04-13T15:44:19.803Z,5.31
2019-04-13T15:46:48.894Z,5.16
2019-04-13T15:49:17.590Z,4.97
2019-04-13T15:51:47.600Z,4.95
2019-04-13T15:54:16.982Z,4.86
2019-04-13T15:56:46.362Z,4.86
2019-04-13T15:59:18.191Z,4.83
2019-04-13T16:01:48.089Z,4.83
2019-04-13T16:04:16.852Z,4.83
2019-04-13T16:06:46.423Z,4.67
2019-04-13T16:09:34.712Z,4.67
2019-04-13T16:12:07.571Z,4.69
2019-04-13T16:14:37.368Z,4.69
2019-04-13T16:17:06.369Z,4.65
2019-04-13T16:19:35.248Z,4.56
2019-04-13T16:22:04.648Z,4.47
2019-04-13T16:24:33.715Z,4.47
2019-04-13T16:27:03.499Z,4.52
2019-04-13T16:29:51.427Z,4.52
2019-04-13T16:32:58.187Z,4.27
2019-04-13T16:35:33.548Z,4.27
2019-04-13T16:38:03.384Z,4.34
2019-04-13T16:40:33.509Z,4.21
2019-04-13T16:43:03.730Z,4.16
2019-04-13T16:45:39.982Z,4.16
2019-04-13T16:48:28.020Z,4.10
2019-04-13T16:51:16.211Z,4.05
2019-04-13T16:54:06.291Z,4.05
2019-04-13T16:56:39.525Z,4.03
2019-04-13T16:59:32.023Z,4.07
2019-04-13T17:02:20.256Z,3.99
2019-04-13T17:04:55.088Z,4.04
2019-04-13T17:07:24.068Z,4.04
2019-04-13T17:09:52.898Z,4.12
2019-04-13T17:12:30.749Z,4.00
2019-04-13T17:14:52.087Z,3.92
2019-04-13T17:17:22.026Z,3.96
2019-04-13T17:19:56.243Z,3.96
2019-04-13T17:22:43.988Z,4.02
2019-04-13T17:25:22.685Z,4.02
2019-04-13T17:28:14.110Z,3.96
2019-04-13T17:30:59.102Z,3.95
2019-04-13T17:33:46.730Z,3.82
2019-04-13T17:36:16.939Z,3.95
2019-04-13T17:38:46.131Z,3.70
2019-04-13T17:41:42.565Z,3.75
2019-04-13T17:44:20.215Z,3.77
2019-04-13T17:47:08.302Z,3.77
2019-04-13T17:49:55.159Z,3.84
2019-04-13T17:52:41.943Z,3.80
2019-04-13T17:55:18.991Z,3.71
2019-04-13T17:58:08.116Z,3.60
2019-04-13T18:01:08.320Z,3.77
2019-04-13T18:04:03.044Z,3.77
2019-04-13T18:07:03.136Z,3.65
2019-04-13T18:09:53.512Z,3.67
2019-04-13T18:12:50.015Z,3.67
2019-04-13T18:15:30.496Z,3.60
2019-04-13T18:18:03.947Z,3.65
2019-04-13T18:20:32.570Z,3.59
2019-04-13T18:23:02.518Z,3.52
2019-04-13T18:25:41.900Z,3.49
2019-04-13T18:28:02.210Z,3.42
2019-04-13T18:30:34.475Z,3.42
2019-04-13T18:33:01.152Z,3.37
2019-04-13T18:35:31.148Z,3.34
2019-04-13T18:38:01.338Z,3.54
2019-04-13T18:40:32.282Z,3.54
2019-04-13T18:43:08.319Z,3.45
2019-04-13T18:45:32.856Z,3.27
2019-04-13T18:48:02.154Z,3.37
2019-04-13T18:50:31.132Z,3.45
2019-04-13T18:53:00.521Z,3.29
2019-04-13T18:55:30.909Z,3.38
2019-04-13T18:57:59.870Z,3.49
2019-04-13T19:00:29.937Z,3.46
2019-04-13T19:02:58.987Z,3.48
2019-04-13T19:05:27.632Z,3.38
2019-04-13T19:07:56.756Z,3.35
2019-04-13T19:10:25.467Z,3.33
2019-04-13T19:13:03.667Z,3.36
2019-04-13T19:15:24.704Z,3.37
2019-04-13T19:17:53.672Z,3.37
2019-04-13T19:20:22.649Z,3.39
2019-04-13T19:22:51.528Z,3.37
2019-04-13T19:25:20.376Z,3.34
2019-04-13T19:27:49.520Z,3.38
2019-04-13T19:30:18.661Z,3.31
2019-04-13T19:32:47.614Z,3.32
2019-04-13T19:35:16.502Z,3.32
2019-04-13T19:37:45.437Z,3.35
2019-04-13T19:40:14.200Z,3.29
2019-04-13T19:42:43.206Z,3.32
2019-04-13T19:45:11.900Z,3.39
2019-04-13T19:47:41.021Z,3.42
2019-04-13T19:50:11.271Z,3.50
2019-04-13T19:52:45.832Z,3.43
2019-04-13T19:55:16.677Z,3.34
2019-04-13T19:57:45.539Z,3.38
2019-04-13T20:00:22.493Z,3.30
2019-04-13T20:02:51.949Z,3.30
2019-04-13T20:05:20.595Z,3.33
2019-04-13T20:07:49.467Z,3.40
2019-04-13T20:10:18.417Z,3.39
2019-04-13T20:12:47.017Z,3.34
2019-04-13T20:15:16.175Z,3.37
2019-04-13T20:17:45.339Z,3.37
2019-04-13T20:20:14.378Z,3.32
2019-04-13T20:22:43.495Z,3.45
2019-04-13T20:25:13.425Z,3.44
2019-04-13T20:27:43.479Z,3.43
2019-04-13T20:30:13.104Z,3.46
2019-04-13T20:32:42.809Z,3.51
2019-04-13T20:35:12.704Z,3.56
2019-04-13T20:37:42.591Z,3.49
2019-04-13T20:40:20.581Z,3.49
2019-04-13T20:42:50.467Z,3.56
2019-04-13T20:45:20.099Z,3.56
2019-04-13T20:47:50.088Z,3.54
2019-04-13T20:50:20.376Z,3.53
2019-04-13T20:52:49.642Z,3.48
2019-04-13T20:55:19.733Z,3.52
2019-04-13T20:57:50.113Z,3.49
2019-04-13T21:00:20.352Z,3.47
2019-04-13T21:02:50.490Z,3.55
2019-04-13T21:05:19.228Z,3.61
2019-04-13T21:07:48.820Z,3.60
2019-04-13T21:10:18.016Z,3.55
2019-04-13T21:12:46.949Z,3.56
2019-04-13T21:15:16.073Z,3.54
2019-04-13T21:17:46.321Z,3.49
2019-04-13T21:20:16.494Z,3.53
2019-04-13T21:22:46.412Z,3.50
2019-04-13T21:25:16.262Z,3.48
2019-04-13T21:27:44.988Z,3.54
2019-04-13T21:30:14.291Z,3.56
2019-04-13T21:32:44.352Z,3.55
2019-04-13T21:35:14.213Z,3.62
2019-04-13T21:37:42.999Z,3.57
2019-04-13T21:40:12.308Z,3.60
2019-04-13T21:42:40.975Z,3.62
2019-04-13T21:45:10.298Z,3.69
2019-04-13T21:47:40.410Z,3.75
2019-04-13T21:50:37.496Z,3.67
2019-04-13T21:53:26.669Z,3.77
2019-04-13T21:55:55.637Z,3.76
2019-04-13T21:58:25.129Z,3.77
2019-04-13T22:01:16.991Z,3.83
2019-04-13T22:03:46.948Z,3.78
2019-04-13T22:06:16.684Z,3.76
2019-04-13T22:08:46.965Z,3.79
2019-04-13T22:11:16.963Z,3.79
2019-04-13T22:13:46.799Z,3.79
2019-04-13T22:16:16.809Z,3.79
2019-04-13T22:18:45.939Z,3.87
2019-04-13T22:21:15.520Z,3.86
2019-04-13T22:23:45.397Z,3.89
2019-04-13T22:26:15.396Z,3.80
2019-04-13T22:28:52.445Z,3.78
2019-04-13T22:31:39.511Z,3.78
2019-04-13T22:34:11.803Z,3.77
2019-04-13T22:36:42.015Z,3.80
2019-04-13T22:39:11.783Z,3.76
2019-04-13T22:41:41.488Z,3.75
2019-04-13T22:44:10.266Z,3.74
2019-04-13T22:46:39.246Z,3.72
2019-04-13T22:49:32.077Z,3.68
2019-04-13T22:52:12.883Z,3.61
2019-04-13T22:55:10.204Z,3.61
2019-04-13T22:57:41.499Z,3.66
2019-04-13T23:00:27.921Z,3.64
2019-04-13T23:02:58.173Z,3.62
2019-04-13T23:05:27.027Z,3.52
2019-04-13T23:07:56.739Z,3.55
2019-04-13T23:10:26.834Z,3.48
2019-04-13T23:12:55.565Z,3.41
2019-04-13T23:15:29.267Z,3.31
2019-04-13T23:17:55.236Z,3.22
2019-04-13T23:20:24.067Z,3.18
2019-04-13T23:22:54.198Z,3.13
2019-04-13T23:25:24.368Z,3.06
2019-04-13T23:27:53.392Z,3.00
2019-04-13T23:30:22.641Z,2.98
2019-04-13T23:32:51.688Z,2.99
2019-04-13T23:35:21.343Z,2.99
2019-04-13T23:37:52.009Z,3.06
2019-04-13T23:40:20.724Z,3.03
2019-04-13T23:42:50.471Z,3.08
2019-04-13T23:45:30.180Z,3.10
2019-04-13T23:47:56.422Z,3.12
2019-04-13T23:50:26.276Z,3.13
2019-04-13T23:52:56.516Z,3.12
2019-04-13T23:55:31.447Z,3.11
2019-04-13T23:58:19.287Z,3.19
